createdAt,value
2019-05-29T00:00:32.203Z,99.90
2019-05-29T00:03:00.984Z,99.90
2019-05-29T00:05:29.881Z,99.90
2019-05-29T00:07:58.733Z,99.90
2019-05-29T00:10:27.366Z,99.90
2019-05-29T00:12:56.112Z,99.90
2019-05-29T00:15:24.693Z,99.90
2019-05-29T00:17:53.274Z,99.90
2019-05-29T00:20:22.166Z,99.90
2019-05-29T00:22:50.764Z,99.90
2019-05-29T00:25:19.455Z,99.90
2019-05-29T00:27:48.032Z,99.90
2019-05-29T00:30:17.035Z,99.90
2019-05-29T00:32:45.592Z,99.90
2019-05-29T00:35:16.340Z,99.90
2019-05-29T00:37:45.025Z,99.90
2019-05-29T00:40:15.071Z,99.90
2019-05-29T00:42:43.755Z,99.90
2019-05-29T00:45:13.598Z,99.90
2019-05-29T00:47:42.178Z,99.90
2019-05-29T00:50:12.277Z,99.90
2019-05-29T00:52:40.932Z,99.90
2019-05-29T00:55:10.496Z,99.90
2019-05-29T00:57:39.165Z,99.90
2019-05-29T01:00:09.046Z,99.90
2019-05-29T01:02:37.662Z,99.90
2019-05-29T01:05:07.702Z,99.90
2019-05-29T01:07:36.274Z,99.90
2019-05-29T01:10:07.803Z,99.90
2019-05-29T01:12:36.505Z,99.90
2019-05-29T01:15:06.798Z,99.90
2019-05-29T01:17:35.411Z,99.90
2019-05-29T01:20:07.295Z,99.90
2019-05-29T01:22:35.974Z,99.90
2019-05-29T01:25:05.770Z,99.90
2019-05-29T01:27:34.381Z,99.90
2019-05-29T01:30:03.066Z,99.90
2019-05-29T01:32:31.664Z,99.90
2019-05-29T01:35:00.268Z,99.90
2019-05-29T01:37:28.846Z,99.90
2019-05-29T01:39:57.420Z,99.90
2019-05-29T01:42:26.041Z,99.90
2019-05-29T01:45:07.380Z,99.90
2019-05-29T01:47:25.118Z,99.90
2019-05-29T01:49:53.792Z,99.90
2019-05-29T01:52:23.478Z,99.90
2019-05-29T01:54:52.315Z,99.90
2019-05-29T01:57:21.791Z,99.90
2019-05-29T01:59:50.711Z,99.90
2019-05-29T02:02:19.860Z,99.90
2019-05-29T02:04:48.546Z,99.90
2019-05-29T02:07:17.941Z,99.90
2019-05-29T02:09:46.882Z,99.90
2019-05-29T02:12:16.277Z,99.90
2019-05-29T02:14:44.944Z,99.90
2019-05-29T02:17:13.593Z,99.90
2019-05-29T02:19:42.168Z,99.90
2019-05-29T02:22:10.845Z,99.90
2019-05-29T02:24:39.422Z,99.90
2019-05-29T02:27:08.040Z,99.90
2019-05-29T02:29:36.685Z,99.90
2019-05-29T02:32:05.400Z,99.90
2019-05-29T02:34:34.083Z,99.90
2019-05-29T02:37:02.698Z,99.90
2019-05-29T02:39:31.586Z,99.90
2019-05-29T02:42:00.165Z,99.90
2019-05-29T02:44:29.698Z,99.90
2019-05-29T02:46:58.638Z,99.90
2019-05-29T02:49:28.137Z,99.90
2019-05-29T02:51:56.842Z,99.90
2019-05-29T02:54:27.053Z,99.90
2019-05-29T02:56:55.699Z,99.90
2019-05-29T02:59:25.599Z,99.90
2019-05-29T03:01:54.499Z,99.90
2019-05-29T03:04:24.204Z,99.90
2019-05-29T03:06:54.334Z,99.90
2019-05-29T03:09:24.714Z,99.90
2019-05-29T03:11:54.602Z,99.90
2019-05-29T03:14:25.265Z,99.90
2019-05-29T03:16:53.902Z,99.90
2019-05-29T03:19:23.857Z,99.90
2019-05-29T03:21:52.786Z,99.90
2019-05-29T03:24:21.412Z,99.90
2019-05-29T03:26:50.263Z,99.90
2019-05-29T03:29:18.871Z,99.90
2019-05-29T03:31:48.359Z,99.90
2019-05-29T03:34:17.389Z,99.90
2019-05-29T03:36:48.256Z,99.90
2019-05-29T03:39:16.224Z,99.90
2019-05-29T03:41:44.836Z,99.90
2019-05-29T03:44:13.463Z,99.90
2019-05-29T03:46:45.804Z,99.90
2019-05-29T03:49:12.553Z,99.90
2019-05-29T03:51:41.450Z,99.90
2019-05-29T03:54:10.378Z,99.90
2019-05-29T03:56:39.102Z,99.90
2019-05-29T03:59:07.650Z,99.90
2019-05-29T04:01:37.454Z,99.90
2019-05-29T04:04:06.169Z,99.90
2019-05-29T04:06:35.544Z,99.90
2019-05-29T04:09:06.409Z,99.90
2019-05-29T04:11:37.963Z,99.90
2019-05-29T04:14:06.594Z,99.90
2019-05-29T04:16:52.759Z,99.90
2019-05-29T04:19:06.682Z,99.90
2019-05-29T04:21:38.417Z,99.90
2019-05-29T04:24:08.007Z,99.90
2019-05-29T04:26:41.078Z,99.90
2019-05-29T04:29:11.040Z,99.60
2019-05-29T04:31:39.658Z,98.70
2019-05-29T04:34:08.248Z,97.90
2019-05-29T04:36:37.407Z,96.90
2019-05-29T04:39:07.393Z,96.40
2019-05-29T04:41:37.061Z,94.80
2019-05-29T04:44:06.408Z,94.10
2019-05-29T04:46:36.345Z,93.00
2019-05-29T04:49:05.201Z,92.10
2019-05-29T04:51:35.285Z,90.90
2019-05-29T04:54:04.097Z,90.00
2019-05-29T04:56:32.826Z,87.50
2019-05-29T04:59:01.371Z,85.30
2019-05-29T05:01:30.889Z,83.50
2019-05-29T05:03:59.479Z,81.70
2019-05-29T05:06:29.126Z,78.20
2019-05-29T05:08:57.737Z,76.40
2019-05-29T05:11:26.361Z,72.40
2019-05-29T05:13:55.128Z,69.20
2019-05-29T05:16:23.706Z,67.10
2019-05-29T05:18:52.571Z,65.60
2019-05-29T05:21:21.470Z,64.30
2019-05-29T05:23:50.060Z,64.60
2019-05-29T05:26:18.679Z,65.20
2019-05-29T05:28:47.494Z,65.60
2019-05-29T05:31:16.221Z,66.70
2019-05-29T05:33:44.809Z,69.10
2019-05-29T05:36:13.397Z,70.80
2019-05-29T05:38:42.029Z,70.20
2019-05-29T05:41:11.138Z,69.10
2019-05-29T05:43:41.330Z,67.00
2019-05-29T05:46:10.194Z,64.90
2019-05-29T05:48:39.239Z,65.90
2019-05-29T05:51:07.898Z,66.30
2019-05-29T05:53:37.514Z,63.90
2019-05-29T05:56:06.351Z,61.30
2019-05-29T05:58:35.699Z,60.20
2019-05-29T06:01:05.018Z,60.40
2019-05-29T06:03:33.937Z,61.90
2019-05-29T06:06:02.673Z,63.00
2019-05-29T06:08:32.208Z,64.00
2019-05-29T06:11:00.902Z,62.50
2019-05-29T06:13:29.522Z,61.00
2019-05-29T06:15:58.161Z,60.70
2019-05-29T06:18:27.013Z,61.40
2019-05-29T06:20:55.597Z,62.50
2019-05-29T06:23:24.214Z,64.40
2019-05-29T06:25:52.804Z,66.50
2019-05-29T06:28:21.379Z,66.90
2019-05-29T06:30:49.997Z,65.90
2019-05-29T06:33:18.576Z,63.00
2019-05-29T06:35:47.201Z,61.10
2019-05-29T06:38:15.822Z,59.00
2019-05-29T06:40:45.153Z,57.20
2019-05-29T06:43:24.600Z,56.40
2019-05-29T06:45:55.433Z,55.90
2019-05-29T06:48:41.817Z,54.90
2019-05-29T06:50:57.650Z,53.70
2019-05-29T06:53:26.522Z,53.20
2019-05-29T06:55:56.638Z,52.40
2019-05-29T06:58:25.426Z,53.80
2019-05-29T07:00:54.053Z,54.00
2019-05-29T07:03:22.774Z,54.30
2019-05-29T07:05:52.963Z,54.60
2019-05-29T07:08:37.450Z,55.10
2019-05-29T07:10:52.292Z,56.10
2019-05-29T07:13:20.920Z,57.30
2019-05-29T07:15:49.501Z,57.00
2019-05-29T07:18:18.550Z,57.40
2019-05-29T07:20:47.211Z,58.10
2019-05-29T07:23:15.804Z,59.00
2019-05-29T07:25:45.631Z,60.40
2019-05-29T07:28:14.737Z,60.90
2019-05-29T07:30:49.506Z,62.40
2019-05-29T07:33:13.625Z,63.10
2019-05-29T07:35:43.536Z,63.50
2019-05-29T07:38:12.153Z,64.30
2019-05-29T07:40:42.560Z,63.30
2019-05-29T07:43:11.035Z,63.20
2019-05-29T07:45:40.590Z,63.30
2019-05-29T07:48:09.873Z,64.30
2019-05-29T07:50:38.489Z,65.40
2019-05-29T07:53:07.078Z,66.20
2019-05-29T07:55:35.669Z,66.30
2019-05-29T07:58:04.430Z,65.50
2019-05-29T08:00:36.099Z,66.00
2019-05-29T08:03:03.866Z,66.60
2019-05-29T08:05:32.458Z,66.70
2019-05-29T08:08:01.076Z,66.20
2019-05-29T08:10:29.695Z,67.20
2019-05-29T08:12:58.557Z,66.90
2019-05-29T08:15:27.449Z,67.40
2019-05-29T08:17:56.083Z,67.60
2019-05-29T08:20:24.674Z,67.80
2019-05-29T08:22:53.389Z,68.80
2019-05-29T08:25:22.009Z,67.80
2019-05-29T08:27:50.888Z,67.70
2019-05-29T08:30:20.114Z,68.40
2019-05-29T08:32:49.255Z,70.20
2019-05-29T08:35:18.149Z,70.60
2019-05-29T08:37:47.030Z,71.20
2019-05-29T08:40:15.994Z,70.70
2019-05-29T08:42:45.231Z,71.10
2019-05-29T08:45:14.445Z,70.30
2019-05-29T08:47:43.519Z,70.60
2019-05-29T08:50:18.753Z,71.10
2019-05-29T08:52:43.942Z,69.20
2019-05-29T08:55:13.908Z,70.00
2019-05-29T08:57:42.680Z,71.10
2019-05-29T09:00:12.229Z,69.90
2019-05-29T09:02:42.428Z,71.00
2019-05-29T09:05:12.031Z,68.50
2019-05-29T09:07:40.623Z,69.40
2019-05-29T09:10:09.687Z,69.50
2019-05-29T09:12:38.411Z,71.60
2019-05-29T09:15:11.349Z,71.30
2019-05-29T09:17:39.914Z,72.30
2019-05-29T09:20:23.423Z,72.50
2019-05-29T09:22:39.415Z,73.30
2019-05-29T09:25:08.810Z,72.80
2019-05-29T09:27:37.496Z,73.10
2019-05-29T09:30:07.189Z,73.20
2019-05-29T09:32:49.559Z,70.70
2019-05-29T09:35:06.122Z,70.40
2019-05-29T09:37:34.809Z,71.60
2019-05-29T09:40:06.093Z,70.50
2019-05-29T09:42:34.712Z,70.60
2019-05-29T09:45:03.766Z,67.70
2019-05-29T09:47:32.404Z,67.70
2019-05-29T09:50:01.261Z,66.10
2019-05-29T09:52:30.865Z,63.60
2019-05-29T09:55:00.414Z,64.40
2019-05-29T09:57:29.089Z,65.90
2019-05-29T09:59:59.554Z,65.10
2019-05-29T10:02:27.900Z,65.00
2019-05-29T10:04:57.833Z,63.40
2019-05-29T10:07:26.738Z,63.90
2019-05-29T10:09:56.847Z,65.30
2019-05-29T10:12:25.895Z,66.60
2019-05-29T10:14:56.023Z,67.40
2019-05-29T10:17:24.765Z,67.70
2019-05-29T10:19:55.411Z,68.90
2019-05-29T10:22:23.625Z,68.50
2019-05-29T10:24:52.218Z,68.00
2019-05-29T10:27:20.902Z,69.60
2019-05-29T10:29:52.467Z,69.90
2019-05-29T10:32:20.217Z,68.00
2019-05-29T10:34:48.894Z,68.00
2019-05-29T10:37:18.424Z,66.50
2019-05-29T10:39:47.065Z,66.80
2019-05-29T10:42:15.733Z,66.70
2019-05-29T10:44:44.891Z,68.10
2019-05-29T10:47:13.710Z,68.20
2019-05-29T10:49:43.439Z,68.80
2019-05-29T10:52:16.720Z,65.60
2019-05-29T10:54:42.637Z,67.00
2019-05-29T10:57:11.542Z,65.20
2019-05-29T10:59:40.189Z,65.80
2019-05-29T11:02:09.091Z,67.90
2019-05-29T11:04:37.712Z,67.70
2019-05-29T11:07:07.100Z,68.20
2019-05-29T11:09:44.479Z,67.30
2019-05-29T11:12:06.081Z,68.70
2019-05-29T11:14:34.670Z,69.50
2019-05-29T11:17:03.322Z,69.90
2019-05-29T11:19:31.878Z,68.10
2019-05-29T11:22:16.246Z,67.40
2019-05-29T11:24:30.894Z,65.60
2019-05-29T11:26:59.524Z,66.00
2019-05-29T11:29:28.115Z,64.60
2019-05-29T11:31:57.044Z,65.70
2019-05-29T11:34:25.717Z,64.60
2019-05-29T11:36:54.374Z,61.80
2019-05-29T11:39:22.991Z,62.50
2019-05-29T11:41:52.591Z,62.10
2019-05-29T11:44:21.311Z,63.00
2019-05-29T11:46:50.197Z,64.40
2019-05-29T11:49:18.826Z,65.20
2019-05-29T11:51:47.399Z,62.50
2019-05-29T11:54:16.025Z,63.10
2019-05-29T11:56:44.611Z,62.40
2019-05-29T11:59:13.236Z,63.50
2019-05-29T12:01:50.044Z,62.80
2019-05-29T12:04:25.510Z,64.30
2019-05-29T12:06:42.338Z,65.60
2019-05-29T12:09:11.229Z,65.70
2019-05-29T12:11:39.885Z,64.80
2019-05-29T12:14:08.498Z,64.60
2019-05-29T12:16:37.466Z,65.00
2019-05-29T12:19:06.109Z,64.90
2019-05-29T12:21:35.017Z,62.60
2019-05-29T12:24:03.697Z,61.90
2019-05-29T12:26:32.287Z,64.60
2019-05-29T12:29:08.441Z,65.40
2019-05-29T12:31:31.136Z,65.70
2019-05-29T12:34:10.316Z,65.50
2019-05-29T12:36:29.983Z,66.40
2019-05-29T12:38:59.636Z,64.70
2019-05-29T12:41:28.392Z,65.00
2019-05-29T12:43:57.445Z,65.50
2019-05-29T12:46:26.167Z,65.40
2019-05-29T12:48:55.341Z,66.90
2019-05-29T12:51:23.998Z,66.50
2019-05-29T12:53:53.871Z,65.50
2019-05-29T12:56:22.893Z,65.50
2019-05-29T12:58:51.828Z,62.80
2019-05-29T13:01:20.411Z,66.20
2019-05-29T13:03:49.040Z,64.50
2019-05-29T13:06:17.949Z,64.50
2019-05-29T13:08:46.531Z,65.10
2019-05-29T13:11:15.143Z,66.00
2019-05-29T13:13:44.062Z,64.50
2019-05-29T13:16:12.650Z,64.20
2019-05-29T13:18:41.243Z,64.90
2019-05-29T13:21:09.853Z,63.20
2019-05-29T13:23:45.036Z,64.70
2019-05-29T13:26:08.702Z,63.90
2019-05-29T13:28:38.242Z,62.90
2019-05-29T13:31:07.001Z,63.40
2019-05-29T13:33:35.642Z,65.30
2019-05-29T13:36:04.556Z,66.30
2019-05-29T13:38:33.602Z,66.30
2019-05-29T13:41:02.615Z,66.00
2019-05-29T13:43:31.489Z,65.90
2019-05-29T13:46:00.478Z,66.10
2019-05-29T13:48:29.108Z,65.70
2019-05-29T13:50:59.556Z,68.10
2019-05-29T13:53:28.224Z,67.50
2019-05-29T13:55:57.720Z,64.20
2019-05-29T13:58:26.395Z,64.80
2019-05-29T14:00:55.355Z,68.00
2019-05-29T14:03:23.937Z,66.80
2019-05-29T14:05:52.531Z,70.50
2019-05-29T14:08:21.141Z,70.00
2019-05-29T14:10:49.855Z,70.40
2019-05-29T14:13:18.551Z,64.90
2019-05-29T14:15:47.446Z,65.80
2019-05-29T14:18:16.032Z,67.50
2019-05-29T14:20:44.995Z,67.50
2019-05-29T14:23:13.579Z,68.10
2019-05-29T14:25:42.262Z,65.40
2019-05-29T14:28:10.846Z,63.80
2019-05-29T14:30:39.468Z,62.50
2019-05-29T14:33:12.620Z,63.30
2019-05-29T14:35:39.228Z,65.40
2019-05-29T14:38:11.607Z,64.60
2019-05-29T14:40:39.270Z,63.80
2019-05-29T14:43:11.355Z,64.30
2019-05-29T14:45:38.177Z,64.40
2019-05-29T14:48:08.054Z,65.30
2019-05-29T14:50:36.776Z,63.60
2019-05-29T14:53:07.153Z,63.00
2019-05-29T14:55:36.039Z,63.60
2019-05-29T14:58:05.755Z,62.80
2019-05-29T15:00:34.612Z,64.30
2019-05-29T15:03:03.373Z,65.50
2019-05-29T15:05:32.021Z,64.60
2019-05-29T15:08:00.661Z,65.40
2019-05-29T15:10:29.606Z,65.20
2019-05-29T15:12:58.505Z,64.00
2019-05-29T15:15:27.470Z,63.60
2019-05-29T15:17:56.056Z,63.80
2019-05-29T15:20:24.741Z,61.70
2019-05-29T15:22:53.351Z,62.60
2019-05-29T15:25:24.410Z,62.60
2019-05-29T15:27:52.714Z,62.70
2019-05-29T15:30:23.529Z,64.40
2019-05-29T15:32:51.667Z,64.10
2019-05-29T15:35:20.508Z,63.50
2019-05-29T15:37:49.130Z,64.40
2019-05-29T15:40:19.223Z,64.20
2019-05-29T15:42:47.850Z,64.30
2019-05-29T15:45:18.167Z,62.80
2019-05-29T15:47:46.942Z,62.50
2019-05-29T15:50:17.861Z,62.10
2019-05-29T15:52:46.642Z,61.90
2019-05-29T15:55:28.129Z,62.40
2019-05-29T15:57:46.948Z,62.60
2019-05-29T16:00:17.879Z,63.10
2019-05-29T16:02:49.095Z,62.30
2019-05-29T16:05:18.964Z,61.90
2019-05-29T16:07:48.085Z,61.10
2019-05-29T16:10:20.717Z,61.20
2019-05-29T16:12:48.722Z,61.20
2019-05-29T16:15:19.492Z,61.40
2019-05-29T16:17:48.189Z,60.60
2019-05-29T16:20:18.390Z,60.80
2019-05-29T16:22:47.241Z,62.20
2019-05-29T16:25:16.942Z,62.70
2019-05-29T16:27:45.731Z,60.40
2019-05-29T16:30:15.551Z,58.60
2019-05-29T16:32:44.522Z,58.60
2019-05-29T16:35:13.533Z,58.70
2019-05-29T16:37:43.379Z,59.50
2019-05-29T16:40:16.114Z,58.70
2019-05-29T16:42:44.443Z,58.30
2019-05-29T16:45:14.334Z,57.60
2019-05-29T16:47:43.752Z,59.30
2019-05-29T16:50:14.992Z,59.50
2019-05-29T16:52:44.033Z,59.30
2019-05-29T16:55:14.946Z,57.90
2019-05-29T16:57:43.790Z,58.50
2019-05-29T17:00:13.815Z,58.20
2019-05-29T17:02:43.651Z,57.60
2019-05-29T17:05:13.660Z,57.50
2019-05-29T17:07:42.400Z,57.60
2019-05-29T17:10:11.073Z,58.20
2019-05-29T17:12:39.729Z,58.90
2019-05-29T17:15:14.824Z,59.00
2019-05-29T17:17:44.521Z,58.70
2019-05-29T17:20:14.784Z,58.70
2019-05-29T17:22:44.371Z,58.50
2019-05-29T17:25:14.700Z,59.00
2019-05-29T17:27:43.366Z,59.30
2019-05-29T17:30:12.374Z,57.80
2019-05-29T17:32:40.953Z,59.70
2019-05-29T17:35:10.316Z,60.70
2019-05-29T17:37:39.205Z,61.10
2019-05-29T17:40:08.709Z,61.50
2019-05-29T17:42:37.337Z,60.10
2019-05-29T17:45:09.113Z,60.30
2019-05-29T17:47:38.776Z,62.50
2019-05-29T17:50:10.493Z,61.20
2019-05-29T17:52:39.136Z,60.80
2019-05-29T17:55:08.193Z,61.20
2019-05-29T17:57:37.240Z,60.60
2019-05-29T18:00:13.447Z,59.30
2019-05-29T18:02:51.458Z,61.10
2019-05-29T18:05:13.269Z,61.10
2019-05-29T18:07:41.967Z,62.80
2019-05-29T18:10:11.381Z,62.60
2019-05-29T18:12:40.202Z,63.20
2019-05-29T18:15:10.223Z,62.90
2019-05-29T18:17:38.909Z,62.00
2019-05-29T18:20:09.313Z,61.90
2019-05-29T18:22:38.387Z,61.50
2019-05-29T18:25:08.737Z,62.40
2019-05-29T18:27:37.670Z,62.60
2019-05-29T18:30:08.467Z,62.10
2019-05-29T18:32:37.554Z,62.40
2019-05-29T18:35:08.414Z,63.10
2019-05-29T18:37:37.310Z,62.20
2019-05-29T18:40:09.925Z,62.40
2019-05-29T18:42:37.270Z,63.00
2019-05-29T18:45:19.650Z,62.30
2019-05-29T18:47:38.364Z,63.00
2019-05-29T18:50:08.482Z,62.70
2019-05-29T18:52:37.174Z,63.00
2019-05-29T18:55:07.477Z,62.90
2019-05-29T18:57:36.374Z,61.80
2019-05-29T19:00:09.782Z,62.80
2019-05-29T19:02:38.401Z,64.20
2019-05-29T19:05:07.521Z,65.40
2019-05-29T19:07:36.137Z,66.20
2019-05-29T19:10:07.225Z,66.10
2019-05-29T19:12:36.225Z,66.30
2019-05-29T19:15:08.701Z,67.00
2019-05-29T19:17:38.230Z,67.60
2019-05-29T19:20:07.453Z,67.50
2019-05-29T19:22:36.406Z,68.10
2019-05-29T19:25:06.900Z,69.10
2019-05-29T19:27:41.380Z,69.40
2019-05-29T19:30:09.315Z,69.90
2019-05-29T19:32:38.046Z,69.80
2019-05-29T19:35:07.994Z,69.40
2019-05-29T19:37:36.959Z,70.20
2019-05-29T19:40:06.892Z,71.10
2019-05-29T19:42:35.541Z,68.70
2019-05-29T19:45:07.454Z,69.00
2019-05-29T19:47:36.334Z,70.50
2019-05-29T19:50:11.184Z,70.70
2019-05-29T19:52:38.374Z,71.50
2019-05-29T19:55:07.368Z,72.10
2019-05-29T19:57:52.433Z,71.50
2019-05-29T20:00:09.267Z,71.60
2019-05-29T20:02:38.720Z,72.60
2019-05-29T20:05:07.676Z,72.70
2019-05-29T20:07:37.393Z,73.40
2019-05-29T20:10:07.764Z,73.90
2019-05-29T20:12:37.904Z,74.00
2019-05-29T20:15:07.354Z,73.70
2019-05-29T20:17:36.300Z,73.70
2019-05-29T20:20:08.356Z,74.20
2019-05-29T20:22:37.123Z,74.20
2019-05-29T20:25:07.804Z,74.40
2019-05-29T20:27:36.502Z,74.90
2019-05-29T20:30:08.414Z,75.00
2019-05-29T20:32:37.033Z,75.50
2019-05-29T20:35:06.305Z,75.30
2019-05-29T20:37:36.138Z,75.30
2019-05-29T20:40:06.237Z,75.40
2019-05-29T20:42:34.826Z,75.90
2019-05-29T20:45:05.195Z,76.10
2019-05-29T20:47:33.889Z,76.10
2019-05-29T20:50:02.794Z,75.80
2019-05-29T20:52:31.681Z,76.70
2019-05-29T20:55:00.552Z,76.70
2019-05-29T20:57:29.163Z,76.70
2019-05-29T20:59:57.746Z,77.50
2019-05-29T21:02:26.638Z,77.40
2019-05-29T21:04:56.006Z,76.40
2019-05-29T21:07:25.558Z,76.50
2019-05-29T21:09:54.182Z,76.80
2019-05-29T21:12:22.825Z,77.10
2019-05-29T21:14:51.458Z,77.80
2019-05-29T21:17:20.040Z,78.00
2019-05-29T21:19:49.591Z,77.70
2019-05-29T21:22:18.182Z,78.10
2019-05-29T21:24:58.243Z,78.00
2019-05-29T21:27:17.174Z,78.40
2019-05-29T21:29:45.766Z,78.80
2019-05-29T21:32:14.361Z,79.00
2019-05-29T21:34:43.962Z,79.80
2019-05-29T21:37:12.560Z,80.60
2019-05-29T21:39:42.414Z,81.00
2019-05-29T21:42:11.096Z,81.60
2019-05-29T21:44:40.681Z,82.10
2019-05-29T21:47:09.266Z,82.50
2019-05-29T21:49:38.856Z,82.90
2019-05-29T21:52:07.471Z,83.60
2019-05-29T21:54:37.228Z,84.30
2019-05-29T21:57:06.038Z,84.40
2019-05-29T21:59:34.620Z,84.80
2019-05-29T22:02:04.046Z,85.10
2019-05-29T22:04:32.765Z,85.40
2019-05-29T22:07:01.457Z,85.50
2019-05-29T22:09:30.063Z,85.60
2019-05-29T22:12:01.023Z,86.50
2019-05-29T22:14:29.681Z,86.80
2019-05-29T22:16:59.158Z,87.30
2019-05-29T22:19:27.862Z,87.90
2019-05-29T22:21:57.110Z,88.70
2019-05-29T22:24:25.879Z,89.10
2019-05-29T22:26:55.246Z,89.60
2019-05-29T22:29:24.144Z,90.30
2019-05-29T22:31:53.362Z,90.60
2019-05-29T22:34:22.020Z,90.90
2019-05-29T22:36:51.861Z,91.20
2019-05-29T22:39:20.444Z,91.70
2019-05-29T22:41:49.073Z,92.00
2019-05-29T22:44:17.667Z,92.10
2019-05-29T22:46:46.281Z,92.30
2019-05-29T22:49:14.897Z,92.50
2019-05-29T22:51:43.782Z,92.50
2019-05-29T22:54:12.365Z,92.80
2019-05-29T22:56:40.986Z,93.00
2019-05-29T22:59:09.620Z,93.10
2019-05-29T23:01:38.202Z,93.50
2019-05-29T23:04:06.821Z,93.80
2019-05-29T23:06:35.439Z,94.00
2019-05-29T23:09:05.871Z,94.20
2019-05-29T23:11:34.444Z,94.60
2019-05-29T23:14:03.026Z,94.90
2019-05-29T23:16:31.650Z,95.20
2019-05-29T23:19:00.637Z,95.70
2019-05-29T23:21:29.245Z,96.10
2019-05-29T23:23:57.858Z,96.20
2019-05-29T23:26:26.481Z,96.40
2019-05-29T23:28:55.069Z,96.70
2019-05-29T23:31:23.685Z,96.70
2019-05-29T23:33:52.767Z,96.80
2019-05-29T23:36:22.133Z,97.00
2019-05-29T23:38:50.799Z,97.10
2019-05-29T23:41:19.334Z,97.20
2019-05-29T23:43:47.955Z,97.40
2019-05-29T23:46:16.534Z,97.60
2019-05-29T23:48:45.149Z,97.70
2019-05-29T23:51:14.036Z,97.80
2019-05-29T23:53:43.750Z,98.00
2019-05-29T23:56:12.362Z,98.20
2019-05-29T23:58:41.295Z,98.30
